sensor_id;sensor_type;location;lat;lon;timestamp;P1;durP1;ratioP1;P2;durP2;ratioP2
23360;SDS011;11852;50.082;18.554;2024-02-21T00:00:46;37.3;;;16.0;;
23360;SDS011;11852;50.082;18.554;2024-02-21T00:01:51;32.9;;;14.9;;
23360;SDS011;11852;50.082;18.554;2024-02-21T00:02:56;32.4;;;14.3;;
23360;SDS011;11852;50.082;18.554;2024-02-21T00:04:02;32.3;;;14.6;;
23360;SDS011;11852;50.082;18.554;2024-02-21T00:05:06;30.6;;;14.1;;
23360;SDS011;11852;50.082;18.554;2024-02-21T00:06:11;33.0;;;14.6;;
23360;SDS011;11852;50.082;18.554;2024-02-21T00:07:16;30.9;;;14.2;;
23360;SDS011;11852;50.082;18.554;2024-02-21T00:08:21;28.2;;;12.9;;
23360;SDS011;11852;50.082;18.554;2024-02-21T00:09:26;29.3;;;13.5;;
23360;SDS011;11852;50.082;18.554;2024-02-21T00:10:33;30.4;;;13.7;;
23360;SDS011;11852;50.082;18.554;2024-02-21T00:11:38;30.2;;;13.2;;
23360;SDS011;11852;50.082;18.554;2024-02-21T00:12:43;30.8;;;13.8;;
23360;SDS011;11852;50.082;18.554;2024-02-21T00:13:48;28.7;;;14.1;;
23360;SDS011;11852;50.082;18.554;2024-02-21T00:14:53;32.1;;;14.1;;
23360;SDS011;11852;50.082;18.554;2024-02-21T00:16:00;31.9;;;14.3;;
23360;SDS011;11852;50.082;18.554;2024-02-21T00:17:03;30.9;;;13.5;;
23360;SDS011;11852;50.082;18.554;2024-02-21T00:18:08;32.2;;;14.8;;
23360;SDS011;11852;50.082;18.554;2024-02-21T00:19:13;31.5;;;14.7;;
23360;SDS011;11852;50.082;18.554;2024-02-21T00:20:18;34.2;;;15.2;;
23360;SDS011;11852;50.082;18.554;2024-02-21T00:21:23;31.5;;;15.6;;
23360;SDS011;11852;50.082;18.554;2024-02-21T00:22:28;35.1;;;16.0;;
23360;SDS011;11852;50.082;18.554;2024-02-21T00:23:33;37.8;;;16.7;;
23360;SDS011;11852;50.082;18.554;2024-02-21T00:24:38;37.1;;;16.7;;
23360;SDS011;11852;50.082;18.554;2024-02-21T00:25:43;38.9;;;17.5;;
23360;SDS011;11852;50.082;18.554;2024-02-21T00:26:48;39.4;;;17.5;;
23360;SDS011;11852;50.082;18.554;2024-02-21T00:27:53;35.8;;;15.7;;
23360;SDS011;11852;50.082;18.554;2024-02-21T00:28:58;36.4;;;17.1;;
23360;SDS011;11852;50.082;18.554;2024-02-21T00:30:03;38.6;;;17.3;;
23360;SDS011;11852;50.082;18.554;2024-02-21T00:31:08;37.1;;;16.9;;
23360;SDS011;11852;50.082;18.554;2024-02-21T00:32:13;37.7;;;17.9;;
23360;SDS011;11852;50.082;18.554;2024-02-21T00:33:18;38.2;;;17.0;;
23360;SDS011;11852;50.082;18.554;2024-02-21T00:34:23;39.1;;;18.6;;
23360;SDS011;11852;50.082;18.554;2024-02-21T00:35:29;39.2;;;17.5;;
23360;SDS011;11852;50.082;18.554;2024-02-21T00:36:34;38.4;;;17.4;;
23360;SDS011;11852;50.082;18.554;2024-02-21T00:37:38;39.0;;;17.6;;
23360;SDS011;11852;50.082;18.554;2024-02-21T00:38:43;39.1;;;17.6;;
23360;SDS011;11852;50.082;18.554;2024-02-21T00:39:48;37.9;;;16.8;;
23360;SDS011;11852;50.082;18.554;2024-02-21T00:40:54;37.7;;;16.4;;
23360;SDS011;11852;50.082;18.554;2024-02-21T00:41:59;36.7;;;16.7;;
23360;SDS011;11852;50.082;18.554;2024-02-21T00:43:04;36.4;;;16.7;;
23360;SDS011;11852;50.082;18.554;2024-02-21T00:44:09;37.6;;;17.0;;
23360;SDS011;11852;50.082;18.554;2024-02-21T00:45:14;34.0;;;15.1;;
23360;SDS011;11852;50.082;18.554;2024-02-21T00:46:19;36.9;;;16.4;;
23360;SDS011;11852;50.082;18.554;2024-02-21T00:47:24;35.6;;;16.4;;
23360;SDS011;11852;50.082;18.554;2024-02-21T00:48:29;38.1;;;15.8;;
23360;SDS011;11852;50.082;18.554;2024-02-21T00:49:34;33.0;;;15.6;;
23360;SDS011;11852;50.082;18.554;2024-02-21T00:50:39;34.0;;;16.1;;
23360;SDS011;11852;50.082;18.554;2024-02-21T00:51:45;31.3;;;14.0;;
23360;SDS011;11852;50.082;18.554;2024-02-21T00:52:50;30.9;;;13.3;;
23360;SDS011;11852;50.082;18.554;2024-02-21T00:53:55;31.3;;;13.8;;
23360;SDS011;11852;50.082;18.554;2024-02-21T00:55:03;30.5;;;13.8;;
23360;SDS011;11852;50.082;18.554;2024-02-21T00:56:07;32.6;;;13.0;;
23360;SDS011;11852;50.082;18.554;2024-02-21T00:57:12;30.8;;;13.2;;
23360;SDS011;11852;50.082;18.554;2024-02-21T00:58:17;31.3;;;13.5;;
23360;SDS011;11852;50.082;18.554;2024-02-21T00:59:22;28.8;;;13.8;;
23360;SDS011;11852;50.082;18.554;2024-02-21T01:00:27;30.1;;;13.6;;
23360;SDS011;11852;50.082;18.554;2024-02-21T01:01:32;33.0;;;16.1;;
23360;SDS011;11852;50.082;18.554;2024-02-21T01:02:37;29.6;;;14.6;;
23360;SDS011;11852;50.082;18.554;2024-02-21T01:03:42;36.7;;;17.4;;
23360;SDS011;11852;50.082;18.554;2024-02-21T01:04:47;34.3;;;16.9;;
23360;SDS011;11852;50.082;18.554;2024-02-21T01:05:53;34.9;;;16.9;;
23360;SDS011;11852;50.082;18.554;2024-02-21T01:06:58;36.5;;;16.9;;
23360;SDS011;11852;50.082;18.554;2024-02-21T01:08:03;36.8;;;17.7;;
23360;SDS011;11852;50.082;18.554;2024-02-21T01:09:12;39.3;;;18.2;;
23360;SDS011;11852;50.082;18.554;2024-02-21T01:10:17;37.5;;;17.3;;
23360;SDS011;11852;50.082;18.554;2024-02-21T01:11:22;39.8;;;18.1;;
23360;SDS011;11852;50.082;18.554;2024-02-21T01:12:27;35.0;;;17.0;;
23360;SDS011;11852;50.082;18.554;2024-02-21T01:13:32;35.1;;;16.4;;
23360;SDS011;11852;50.082;18.554;2024-02-21T01:14:37;33.8;;;16.3;;
23360;SDS011;11852;50.082;18.554;2024-02-21T01:15:42;38.4;;;16.2;;
23360;SDS011;11852;50.082;18.554;2024-02-21T01:16:47;36.1;;;16.5;;
23360;SDS011;11852;50.082;18.554;2024-02-21T01:17:52;36.0;;;15.8;;
23360;SDS011;11852;50.082;18.554;2024-02-21T01:18:57;35.5;;;16.3;;
23360;SDS011;11852;50.082;18.554;2024-02-21T01:20:03;37.1;;;16.4;;
23360;SDS011;11852;50.082;18.554;2024-02-21T01:21:07;36.5;;;16.5;;
23360;SDS011;11852;50.082;18.554;2024-02-21T01:22:12;35.9;;;16.9;;
23360;SDS011;11852;50.082;18.554;2024-02-21T01:23:18;33.1;;;16.0;;
23360;SDS011;11852;50.082;18.554;2024-02-21T01:24:23;35.8;;;16.7;;
23360;SDS011;11852;50.082;18.554;2024-02-21T01:25:28;34.4;;;16.3;;
23360;SDS011;11852;50.082;18.554;2024-02-21T01:26:33;32.1;;;16.5;;
23360;SDS011;11852;50.082;18.554;2024-02-21T01:27:38;34.6;;;16.3;;
23360;SDS011;11852;50.082;18.554;2024-02-21T01:28:43;35.0;;;16.2;;
23360;SDS011;11852;50.082;18.554;2024-02-21T01:29:48;34.2;;;16.1;;
23360;SDS011;11852;50.082;18.554;2024-02-21T01:30:52;35.7;;;15.5;;
23360;SDS011;11852;50.082;18.554;2024-02-21T01:31:58;35.7;;;16.7;;
23360;SDS011;11852;50.082;18.554;2024-02-21T01:33:03;35.6;;;17.5;;
23360;SDS011;11852;50.082;18.554;2024-02-21T01:34:08;38.6;;;19.0;;
23360;SDS011;11852;50.082;18.554;2024-02-21T01:35:13;36.3;;;17.6;;
23360;SDS011;11852;50.082;18.554;2024-02-21T01:36:18;30.3;;;14.6;;
23360;SDS011;11852;50.082;18.554;2024-02-21T01:37:23;29.4;;;13.9;;
23360;SDS011;11852;50.082;18.554;2024-02-21T01:38:28;30.9;;;13.5;;
23360;SDS011;11852;50.082;18.554;2024-02-21T01:39:33;28.7;;;13.7;;
23360;SDS011;11852;50.082;18.554;2024-02-21T01:40:38;26.9;;;12.9;;
23360;SDS011;11852;50.082;18.554;2024-02-21T01:41:42;28.7;;;13.3;;
23360;SDS011;11852;50.082;18.554;2024-02-21T01:42:47;29.0;;;14.1;;
23360;SDS011;11852;50.082;18.554;2024-02-21T01:43:52;26.4;;;12.5;;
23360;SDS011;11852;50.082;18.554;2024-02-21T01:44:57;27.2;;;12.2;;
23360;SDS011;11852;50.082;18.554;2024-02-21T01:46:02;26.7;;;12.4;;
23360;SDS011;11852;50.082;18.554;2024-02-21T01:47:07;26.3;;;12.4;;
23360;SDS011;11852;50.082;18.554;2024-02-21T01:48:12;26.2;;;11.1;;
23360;SDS011;11852;50.082;18.554;2024-02-21T01:49:18;24.8;;;11.6;;
23360;SDS011;11852;50.082;18.554;2024-02-21T01:50:22;25.5;;;11.7;;
23360;SDS011;11852;50.082;18.554;2024-02-21T01:51:27;23.9;;;11.1;;
23360;SDS011;11852;50.082;18.554;2024-02-21T01:52:32;26.5;;;11.0;;
23360;SDS011;11852;50.082;18.554;2024-02-21T01:53:38;23.3;;;11.4;;
23360;SDS011;11852;50.082;18.554;2024-02-21T01:54:43;21.3;;;10.5;;
23360;SDS011;11852;50.082;18.554;2024-02-21T01:55:47;22.8;;;10.2;;
23360;SDS011;11852;50.082;18.554;2024-02-21T01:56:52;21.1;;;9.3;;
23360;SDS011;11852;50.082;18.554;2024-02-21T01:57:57;21.6;;;10.2;;
23360;SDS011;11852;50.082;18.554;2024-02-21T01:59:02;21.2;;;9.9;;
23360;SDS011;11852;50.082;18.554;2024-02-21T02:00:07;21.0;;;9.2;;
23360;SDS011;11852;50.082;18.554;2024-02-21T02:01:15;24.0;;;10.1;;
23360;SDS011;11852;50.082;18.554;2024-02-21T02:02:21;23.5;;;10.5;;
23360;SDS011;11852;50.082;18.554;2024-02-21T02:03:27;23.3;;;9.8;;
23360;SDS011;11852;50.082;18.554;2024-02-21T02:04:32;22.0;;;10.3;;
23360;SDS011;11852;50.082;18.554;2024-02-21T02:05:37;22.9;;;10.4;;
23360;SDS011;11852;50.082;18.554;2024-02-21T02:06:45;23.0;;;10.3;;
23360;SDS011;11852;50.082;18.554;2024-02-21T02:07:52;23.9;;;10.9;;
23360;SDS011;11852;50.082;18.554;2024-02-21T02:09:00;23.1;;;10.1;;
23360;SDS011;11852;50.082;18.554;2024-02-21T02:10:05;23.2;;;10.2;;
23360;SDS011;11852;50.082;18.554;2024-02-21T02:11:10;19.8;;;9.8;;
23360;SDS011;11852;50.082;18.554;2024-02-21T02:12:15;23.2;;;10.6;;
23360;SDS011;11852;50.082;18.554;2024-02-21T02:13:20;20.3;;;9.2;;
23360;SDS011;11852;50.082;18.554;2024-02-21T02:14:25;18.7;;;9.1;;
23360;SDS011;11852;50.082;18.554;2024-02-21T02:16:46;20.3;;;9.8;;
23360;SDS011;11852;50.082;18.554;2024-02-21T02:17:51;20.8;;;8.8;;
23360;SDS011;11852;50.082;18.554;2024-02-21T02:18:56;19.8;;;9.2;;
23360;SDS011;11852;50.082;18.554;2024-02-21T02:20:01;20.2;;;8.9;;
23360;SDS011;11852;50.082;18.554;2024-02-21T02:21:08;19.5;;;8.8;;
23360;SDS011;11852;50.082;18.554;2024-02-21T02:22:13;21.3;;;9.1;;
23360;SDS011;11852;50.082;18.554;2024-02-21T02:24:27;19.2;;;8.8;;
23360;SDS011;11852;50.082;18.554;2024-02-21T02:25:32;19.5;;;9.0;;
23360;SDS011;11852;50.082;18.554;2024-02-21T02:26:37;18.5;;;9.2;;
23360;SDS011;11852;50.082;18.554;2024-02-21T02:27:42;18.7;;;9.1;;
23360;SDS011;11852;50.082;18.554;2024-02-21T02:28:47;20.7;;;9.1;;
23360;SDS011;11852;50.082;18.554;2024-02-21T02:29:52;20.2;;;9.1;;
23360;SDS011;11852;50.082;18.554;2024-02-21T02:30:57;19.8;;;9.2;;
23360;SDS011;11852;50.082;18.554;2024-02-21T02:32:02;18.6;;;9.3;;
23360;SDS011;11852;50.082;18.554;2024-02-21T02:33:07;19.5;;;9.8;;
23360;SDS011;11852;50.082;18.554;2024-02-21T02:34:12;19.8;;;9.1;;
23360;SDS011;11852;50.082;18.554;2024-02-21T02:35:18;18.3;;;9.2;;
23360;SDS011;11852;50.082;18.554;2024-02-21T02:36:23;18.8;;;9.2;;
23360;SDS011;11852;50.082;18.554;2024-02-21T02:37:28;18.9;;;9.5;;
23360;SDS011;11852;50.082;18.554;2024-02-21T02:38:33;17.9;;;8.5;;
23360;SDS011;11852;50.082;18.554;2024-02-21T02:39:38;19.2;;;9.4;;
23360;SDS011;11852;50.082;18.554;2024-02-21T02:40:43;18.9;;;9.1;;
23360;SDS011;11852;50.082;18.554;2024-02-21T02:41:48;19.3;;;9.3;;
23360;SDS011;11852;50.082;18.554;2024-02-21T02:42:53;19.8;;;9.1;;
23360;SDS011;11852;50.082;18.554;2024-02-21T02:43:58;20.2;;;10.3;;
23360;SDS011;11852;50.082;18.554;2024-02-21T02:45:03;20.2;;;10.5;;
23360;SDS011;11852;50.082;18.554;2024-02-21T02:46:08;19.6;;;10.4;;
23360;SDS011;11852;50.082;18.554;2024-02-21T02:47:13;20.6;;;10.5;;
23360;SDS011;11852;50.082;18.554;2024-02-21T02:48:18;19.7;;;9.7;;
23360;SDS011;11852;50.082;18.554;2024-02-21T02:49:23;21.2;;;9.5;;
23360;SDS011;11852;50.082;18.554;2024-02-21T02:50:28;21.7;;;10.3;;
23360;SDS011;11852;50.082;18.554;2024-02-21T02:51:33;20.9;;;10.2;;
23360;SDS011;11852;50.082;18.554;2024-02-21T02:52:38;19.0;;;9.5;;
23360;SDS011;11852;50.082;18.554;2024-02-21T02:53:43;18.6;;;9.9;;
23360;SDS011;11852;50.082;18.554;2024-02-21T02:54:48;21.2;;;10.3;;
23360;SDS011;11852;50.082;18.554;2024-02-21T02:55:53;18.4;;;10.0;;
23360;SDS011;11852;50.082;18.554;2024-02-21T02:56:58;21.4;;;10.6;;
23360;SDS011;11852;50.082;18.554;2024-02-21T02:58:03;24.0;;;11.2;;
23360;SDS011;11852;50.082;18.554;2024-02-21T02:59:08;24.7;;;10.7;;
23360;SDS011;11852;50.082;18.554;2024-02-21T03:00:13;18.0;;;9.3;;
23360;SDS011;11852;50.082;18.554;2024-02-21T03:01:18;20.0;;;9.7;;
23360;SDS011;11852;50.082;18.554;2024-02-21T03:02:23;19.7;;;9.3;;
23360;SDS011;11852;50.082;18.554;2024-02-21T03:03:28;17.8;;;8.6;;
23360;SDS011;11852;50.082;18.554;2024-02-21T03:04:33;17.1;;;9.5;;
23360;SDS011;11852;50.082;18.554;2024-02-21T03:05:38;18.5;;;8.8;;
23360;SDS011;11852;50.082;18.554;2024-02-21T03:06:43;18.1;;;9.2;;
23360;SDS011;11852;50.082;18.554;2024-02-21T03:07:48;18.0;;;9.3;;
23360;SDS011;11852;50.082;18.554;2024-02-21T03:08:53;18.9;;;10.1;;
23360;SDS011;11852;50.082;18.554;2024-02-21T03:09:58;20.1;;;10.7;;
23360;SDS011;11852;50.082;18.554;2024-02-21T03:11:03;17.2;;;9.1;;
23360;SDS011;11852;50.082;18.554;2024-02-21T03:12:08;16.8;;;7.9;;
23360;SDS011;11852;50.082;18.554;2024-02-21T03:13:16;17.2;;;8.1;;
23360;SDS011;11852;50.082;18.554;2024-02-21T03:14:21;15.4;;;7.8;;
23360;SDS011;11852;50.082;18.554;2024-02-21T03:15:26;16.3;;;8.1;;
23360;SDS011;11852;50.082;18.554;2024-02-21T03:16:33;16.0;;;8.1;;
23360;SDS011;11852;50.082;18.554;2024-02-21T03:17:38;19.9;;;8.5;;
23360;SDS011;11852;50.082;18.554;2024-02-21T03:18:43;18.0;;;8.6;;
23360;SDS011;11852;50.082;18.554;2024-02-21T03:19:48;18.5;;;8.7;;
23360;SDS011;11852;50.082;18.554;2024-02-21T03:20:53;17.1;;;8.1;;
23360;SDS011;11852;50.082;18.554;2024-02-21T03:21:58;19.7;;;8.6;;
23360;SDS011;11852;50.082;18.554;2024-02-21T03:23:02;17.2;;;9.1;;
23360;SDS011;11852;50.082;18.554;2024-02-21T03:24:08;16.3;;;8.0;;
23360;SDS011;11852;50.082;18.554;2024-02-21T03:25:13;16.2;;;7.9;;
23360;SDS011;11852;50.082;18.554;2024-02-21T03:26:17;15.3;;;8.0;;
23360;SDS011;11852;50.082;18.554;2024-02-21T03:27:22;17.2;;;8.4;;
23360;SDS011;11852;50.082;18.554;2024-02-21T03:28:28;17.5;;;8.2;;
23360;SDS011;11852;50.082;18.554;2024-02-21T03:29:32;15.8;;;7.7;;
23360;SDS011;11852;50.082;18.554;2024-02-21T03:30:37;16.8;;;8.1;;
23360;SDS011;11852;50.082;18.554;2024-02-21T03:31:42;17.4;;;9.3;;
23360;SDS011;11852;50.082;18.554;2024-02-21T03:32:47;16.6;;;9.2;;
23360;SDS011;11852;50.082;18.554;2024-02-21T03:33:52;19.6;;;9.8;;
23360;SDS011;11852;50.082;18.554;2024-02-21T03:34:57;18.3;;;9.3;;
23360;SDS011;11852;50.082;18.554;2024-02-21T03:36:02;15.2;;;8.5;;
23360;SDS011;11852;50.082;18.554;2024-02-21T03:37:08;16.7;;;8.9;;
23360;SDS011;11852;50.082;18.554;2024-02-21T03:38:13;15.9;;;8.6;;
23360;SDS011;11852;50.082;18.554;2024-02-21T03:39:17;15.8;;;8.9;;
23360;SDS011;11852;50.082;18.554;2024-02-21T03:40:22;16.2;;;9.0;;
23360;SDS011;11852;50.082;18.554;2024-02-21T03:41:28;16.2;;;8.7;;
23360;SDS011;11852;50.082;18.554;2024-02-21T03:42:32;16.3;;;8.6;;
23360;SDS011;11852;50.082;18.554;2024-02-21T03:43:38;15.9;;;8.2;;
23360;SDS011;11852;50.082;18.554;2024-02-21T03:44:42;15.0;;;8.5;;
23360;SDS011;11852;50.082;18.554;2024-02-21T03:45:47;15.7;;;8.4;;
23360;SDS011;11852;50.082;18.554;2024-02-21T03:46:52;16.4;;;8.8;;
23360;SDS011;11852;50.082;18.554;2024-02-21T03:47:57;14.9;;;8.9;;
23360;SDS011;11852;50.082;18.554;2024-02-21T03:49:02;16.1;;;9.1;;
23360;SDS011;11852;50.082;18.554;2024-02-21T03:50:08;14.3;;;8.5;;
23360;SDS011;11852;50.082;18.554;2024-02-21T03:51:13;14.4;;;8.1;;
23360;SDS011;11852;50.082;18.554;2024-02-21T03:52:18;15.3;;;8.9;;
23360;SDS011;11852;50.082;18.554;2024-02-21T03:53:23;16.2;;;8.3;;
23360;SDS011;11852;50.082;18.554;2024-02-21T03:54:28;16.0;;;8.3;;
23360;SDS011;11852;50.082;18.554;2024-02-21T03:55:33;16.9;;;9.0;;
23360;SDS011;11852;50.082;18.554;2024-02-21T03:56:38;14.7;;;8.8;;
23360;SDS011;11852;50.082;18.554;2024-02-21T03:57:43;15.6;;;8.7;;
23360;SDS011;11852;50.082;18.554;2024-02-21T03:58:51;15.7;;;8.8;;
23360;SDS011;11852;50.082;18.554;2024-02-21T03:59:56;15.9;;;8.9;;
23360;SDS011;11852;50.082;18.554;2024-02-21T04:01:02;14.4;;;8.1;;
23360;SDS011;11852;50.082;18.554;2024-02-21T04:02:06;14.1;;;8.0;;
23360;SDS011;11852;50.082;18.554;2024-02-21T04:03:11;15.6;;;9.3;;
23360;SDS011;11852;50.082;18.554;2024-02-21T04:04:16;17.8;;;9.6;;
23360;SDS011;11852;50.082;18.554;2024-02-21T04:05:21;15.4;;;8.8;;
23360;SDS011;11852;50.082;18.554;2024-02-21T04:06:27;16.7;;;8.9;;
23360;SDS011;11852;50.082;18.554;2024-02-21T04:07:32;15.6;;;9.2;;
23360;SDS011;11852;50.082;18.554;2024-02-21T04:08:37;16.8;;;9.1;;
23360;SDS011;11852;50.082;18.554;2024-02-21T04:09:45;16.7;;;8.6;;
23360;SDS011;11852;50.082;18.554;2024-02-21T04:11:48;16.7;;;8.6;;
23360;SDS011;11852;50.082;18.554;2024-02-21T04:13:19;16.7;;;8.6;;
23360;SDS011;11852;50.082;18.554;2024-02-21T04:15:04;16.7;;;8.6;;
23360;SDS011;11852;50.082;18.554;2024-02-21T04:16:11;16.7;;;8.6;;
23360;SDS011;11852;50.082;18.554;2024-02-21T04:18:15;16.7;;;8.6;;
23360;SDS011;11852;50.082;18.554;2024-02-21T04:20:13;16.7;;;8.6;;
23360;SDS011;11852;50.082;18.554;2024-02-21T04:22:13;16.7;;;8.6;;
23360;SDS011;11852;50.082;18.554;2024-02-21T04:23:38;14.9;;;8.2;;
23360;SDS011;11852;50.082;18.554;2024-02-21T04:24:43;13.5;;;7.9;;
23360;SDS011;11852;50.082;18.554;2024-02-21T04:25:48;15.0;;;8.8;;
23360;SDS011;11852;50.082;18.554;2024-02-21T04:26:53;13.5;;;7.7;;
23360;SDS011;11852;50.082;18.554;2024-02-21T04:27:57;16.0;;;8.7;;
23360;SDS011;11852;50.082;18.554;2024-02-21T04:29:02;14.3;;;8.2;;
23360;SDS011;11852;50.082;18.554;2024-02-21T04:30:07;16.1;;;8.6;;
23360;SDS011;11852;50.082;18.554;2024-02-21T04:31:12;15.4;;;9.3;;
23360;SDS011;11852;50.082;18.554;2024-02-21T04:32:22;16.6;;;10.6;;
23360;SDS011;11852;50.082;18.554;2024-02-21T04:33:27;15.2;;;9.0;;
23360;SDS011;11852;50.082;18.554;2024-02-21T04:34:31;13.7;;;8.3;;
23360;SDS011;11852;50.082;18.554;2024-02-21T04:35:36;14.9;;;8.0;;
23360;SDS011;11852;50.082;18.554;2024-02-21T04:36:41;14.9;;;8.3;;
23360;SDS011;11852;50.082;18.554;2024-02-21T04:37:46;14.2;;;8.5;;
23360;SDS011;11852;50.082;18.554;2024-02-21T04:38:50;14.3;;;8.6;;
23360;SDS011;11852;50.082;18.554;2024-02-21T04:39:55;14.5;;;8.3;;
23360;SDS011;11852;50.082;18.554;2024-02-21T04:41:00;13.9;;;7.8;;
23360;SDS011;11852;50.082;18.554;2024-02-21T04:42:05;15.3;;;7.9;;
23360;SDS011;11852;50.082;18.554;2024-02-21T04:43:12;13.5;;;8.0;;
23360;SDS011;11852;50.082;18.554;2024-02-21T04:44:17;13.8;;;7.7;;
23360;SDS011;11852;50.082;18.554;2024-02-21T04:45:21;16.8;;;8.7;;
23360;SDS011;11852;50.082;18.554;2024-02-21T04:46:26;15.8;;;8.2;;
23360;SDS011;11852;50.082;18.554;2024-02-21T04:47:34;14.9;;;9.0;;
23360;SDS011;11852;50.082;18.554;2024-02-21T04:48:38;15.4;;;8.5;;
23360;SDS011;11852;50.082;18.554;2024-02-21T04:49:43;14.8;;;8.7;;
23360;SDS011;11852;50.082;18.554;2024-02-21T04:50:48;15.8;;;8.9;;
23360;SDS011;11852;50.082;18.554;2024-02-21T04:51:52;16.6;;;8.9;;
23360;SDS011;11852;50.082;18.554;2024-02-21T04:52:57;19.0;;;8.6;;
23360;SDS011;11852;50.082;18.554;2024-02-21T04:54:02;15.2;;;8.6;;
23360;SDS011;11852;50.082;18.554;2024-02-21T04:55:07;16.4;;;8.2;;
23360;SDS011;11852;50.082;18.554;2024-02-21T04:56:11;15.2;;;7.6;;
23360;SDS011;11852;50.082;18.554;2024-02-21T04:57:16;15.5;;;8.0;;
23360;SDS011;11852;50.082;18.554;2024-02-21T04:58:21;16.6;;;8.3;;
23360;SDS011;11852;50.082;18.554;2024-02-21T04:59:25;16.7;;;7.8;;
23360;SDS011;11852;50.082;18.554;2024-02-21T05:00:30;15.9;;;8.0;;
23360;SDS011;11852;50.082;18.554;2024-02-21T05:01:35;15.4;;;7.5;;
23360;SDS011;11852;50.082;18.554;2024-02-21T05:02:42;17.2;;;8.3;;
23360;SDS011;11852;50.082;18.554;2024-02-21T05:03:47;16.5;;;8.7;;
23360;SDS011;11852;50.082;18.554;2024-02-21T05:04:52;16.7;;;7.6;;
23360;SDS011;11852;50.082;18.554;2024-02-21T05:05:57;15.3;;;7.6;;
23360;SDS011;11852;50.082;18.554;2024-02-21T05:07:01;18.8;;;8.9;;
23360;SDS011;11852;50.082;18.554;2024-02-21T05:08:06;16.5;;;8.6;;
23360;SDS011;11852;50.082;18.554;2024-02-21T05:09:11;15.2;;;7.5;;
23360;SDS011;11852;50.082;18.554;2024-02-21T05:10:16;17.7;;;7.9;;
23360;SDS011;11852;50.082;18.554;2024-02-21T05:11:21;16.6;;;8.0;;
23360;SDS011;11852;50.082;18.554;2024-02-21T05:12:26;18.7;;;8.4;;
23360;SDS011;11852;50.082;18.554;2024-02-21T05:13:31;14.3;;;7.5;;
23360;SDS011;11852;50.082;18.554;2024-02-21T05:14:36;19.1;;;8.3;;
23360;SDS011;11852;50.082;18.554;2024-02-21T05:15:41;15.2;;;8.1;;
23360;SDS011;11852;50.082;18.554;2024-02-21T05:16:46;18.9;;;8.8;;
23360;SDS011;11852;50.082;18.554;2024-02-21T05:17:51;15.9;;;8.4;;
23360;SDS011;11852;50.082;18.554;2024-02-21T05:18:56;14.4;;;7.7;;
23360;SDS011;11852;50.082;18.554;2024-02-21T05:20:01;15.1;;;8.3;;
23360;SDS011;11852;50.082;18.554;2024-02-21T05:21:06;16.2;;;8.2;;
23360;SDS011;11852;50.082;18.554;2024-02-21T05:22:11;15.4;;;7.9;;
23360;SDS011;11852;50.082;18.554;2024-02-21T05:23:16;17.4;;;8.6;;
23360;SDS011;11852;50.082;18.554;2024-02-21T05:24:21;19.0;;;8.6;;
23360;SDS011;11852;50.082;18.554;2024-02-21T05:25:26;14.9;;;7.3;;
23360;SDS011;11852;50.082;18.554;2024-02-21T05:26:30;15.6;;;7.3;;
23360;SDS011;11852;50.082;18.554;2024-02-21T05:27:36;14.3;;;7.4;;
23360;SDS011;11852;50.082;18.554;2024-02-21T05:28:40;15.0;;;7.2;;
23360;SDS011;11852;50.082;18.554;2024-02-21T05:29:45;14.0;;;6.3;;
23360;SDS011;11852;50.082;18.554;2024-02-21T05:30:51;14.6;;;6.7;;
23360;SDS011;11852;50.082;18.554;2024-02-21T05:31:57;14.2;;;7.0;;
23360;SDS011;11852;50.082;18.554;2024-02-21T05:33:05;13.8;;;6.4;;
23360;SDS011;11852;50.082;18.554;2024-02-21T05:34:11;13.6;;;6.3;;
23360;SDS011;11852;50.082;18.554;2024-02-21T05:35:16;13.4;;;6.4;;
23360;SDS011;11852;50.082;18.554;2024-02-21T05:36:21;14.0;;;6.3;;
23360;SDS011;11852;50.082;18.554;2024-02-21T05:37:26;13.7;;;6.3;;
23360;SDS011;11852;50.082;18.554;2024-02-21T05:38:31;13.1;;;6.1;;
23360;SDS011;11852;50.082;18.554;2024-02-21T05:39:36;12.1;;;6.1;;
23360;SDS011;11852;50.082;18.554;2024-02-21T05:40:46;13.0;;;6.2;;
23360;SDS011;11852;50.082;18.554;2024-02-21T05:41:51;12.0;;;5.9;;
23360;SDS011;11852;50.082;18.554;2024-02-21T05:42:56;15.0;;;6.2;;
23360;SDS011;11852;50.082;18.554;2024-02-21T05:44:01;14.3;;;6.7;;
23360;SDS011;11852;50.082;18.554;2024-02-21T05:45:05;13.5;;;6.3;;
23360;SDS011;11852;50.082;18.554;2024-02-21T05:46:13;13.7;;;6.6;;
23360;SDS011;11852;50.082;18.554;2024-02-21T05:47:18;14.4;;;6.2;;
23360;SDS011;11852;50.082;18.554;2024-02-21T05:48:24;15.0;;;5.9;;
23360;SDS011;11852;50.082;18.554;2024-02-21T05:49:28;14.3;;;6.5;;
23360;SDS011;11852;50.082;18.554;2024-02-21T05:50:33;13.2;;;5.9;;
23360;SDS011;11852;50.082;18.554;2024-02-21T05:51:39;13.2;;;6.2;;
23360;SDS011;11852;50.082;18.554;2024-02-21T05:52:46;13.1;;;5.8;;
23360;SDS011;11852;50.082;18.554;2024-02-21T05:53:55;15.2;;;6.6;;
23360;SDS011;11852;50.082;18.554;2024-02-21T05:55:00;14.1;;;6.4;;
23360;SDS011;11852;50.082;18.554;2024-02-21T05:56:14;13.7;;;7.0;;
23360;SDS011;11852;50.082;18.554;2024-02-21T05:57:16;13.9;;;6.3;;
23360;SDS011;11852;50.082;18.554;2024-02-21T05:58:20;15.4;;;7.1;;
23360;SDS011;11852;50.082;18.554;2024-02-21T05:59:25;13.4;;;6.1;;
23360;SDS011;11852;50.082;18.554;2024-02-21T06:00:33;15.1;;;6.9;;
23360;SDS011;11852;50.082;18.554;2024-02-21T06:01:38;14.6;;;6.7;;
23360;SDS011;11852;50.082;18.554;2024-02-21T06:02:43;15.9;;;6.9;;
23360;SDS011;11852;50.082;18.554;2024-02-21T06:03:48;14.2;;;6.5;;
23360;SDS011;11852;50.082;18.554;2024-02-21T06:04:59;13.3;;;6.5;;
23360;SDS011;11852;50.082;18.554;2024-02-21T06:06:04;14.0;;;7.3;;
23360;SDS011;11852;50.082;18.554;2024-02-21T06:07:09;13.4;;;6.5;;
23360;SDS011;11852;50.082;18.554;2024-02-21T06:08:15;13.8;;;6.3;;
23360;SDS011;11852;50.082;18.554;2024-02-21T06:09:20;16.6;;;7.0;;
23360;SDS011;11852;50.082;18.554;2024-02-21T06:10:25;17.1;;;7.7;;
23360;SDS011;11852;50.082;18.554;2024-02-21T06:11:30;14.4;;;6.3;;
23360;SDS011;11852;50.082;18.554;2024-02-21T06:12:35;15.1;;;6.5;;
23360;SDS011;11852;50.082;18.554;2024-02-21T06:13:40;14.5;;;6.4;;
23360;SDS011;11852;50.082;18.554;2024-02-21T06:14:45;13.3;;;6.1;;
23360;SDS011;11852;50.082;18.554;2024-02-21T06:15:53;15.8;;;7.0;;
23360;SDS011;11852;50.082;18.554;2024-02-21T06:16:58;16.9;;;6.6;;
23360;SDS011;11852;50.082;18.554;2024-02-21T06:18:03;16.1;;;7.7;;
23360;SDS011;11852;50.082;18.554;2024-02-21T06:19:08;15.6;;;7.2;;
23360;SDS011;11852;50.082;18.554;2024-02-21T06:20:13;15.5;;;6.3;;
23360;SDS011;11852;50.082;18.554;2024-02-21T06:21:18;15.7;;;7.1;;
23360;SDS011;11852;50.082;18.554;2024-02-21T06:22:23;14.9;;;7.1;;
23360;SDS011;11852;50.082;18.554;2024-02-21T06:23:28;14.8;;;6.8;;
23360;SDS011;11852;50.082;18.554;2024-02-21T06:24:34;15.6;;;7.0;;
23360;SDS011;11852;50.082;18.554;2024-02-21T06:25:38;15.3;;;7.9;;
23360;SDS011;11852;50.082;18.554;2024-02-21T06:26:46;20.3;;;8.8;;
23360;SDS011;11852;50.082;18.554;2024-02-21T06:27:51;18.1;;;9.3;;
23360;SDS011;11852;50.082;18.554;2024-02-21T06:28:56;18.0;;;8.8;;
23360;SDS011;11852;50.082;18.554;2024-02-21T06:30:01;19.2;;;9.0;;
23360;SDS011;11852;50.082;18.554;2024-02-21T06:31:06;18.3;;;9.5;;
23360;SDS011;11852;50.082;18.554;2024-02-21T06:32:11;20.2;;;8.9;;
23360;SDS011;11852;50.082;18.554;2024-02-21T06:33:17;16.4;;;7.8;;
23360;SDS011;11852;50.082;18.554;2024-02-21T06:34:22;17.6;;;7.9;;
23360;SDS011;11852;50.082;18.554;2024-02-21T06:35:27;15.3;;;7.7;;
23360;SDS011;11852;50.082;18.554;2024-02-21T06:36:32;16.3;;;7.8;;
23360;SDS011;11852;50.082;18.554;2024-02-21T06:37:37;15.4;;;6.9;;
23360;SDS011;11852;50.082;18.554;2024-02-21T06:38:42;17.4;;;8.1;;